This is the latest recevied weather packets stored in our database for station/object KC9EGS. If no packets are shown the sender has not sent any weather packets the latest 1 day(s).
| Time | Temp. | Humidity | Pressure | Rain* | Wind** | Luminosity | Snow |
|---|---|---|---|---|---|---|---|
| 1777990217 | 3.89° C | 58% | 1002.5 hPa | 0 mm | 1.34 m/s, 275° | - | - |
| 1777989318 | 3.89° C | 59% | 1002.2 hPa | 0 mm | 0.89 m/s, 253° | - | - |
| 1777988417 | 3.33° C | 65% | 1002.1 hPa | 0 mm | 1.34 m/s, 260° | - | - |
| 1777988123 | 3.33° C | 65% | 1002.1 hPa | 0 mm | 4.92 m/s, 237° | - | - |
| 1777987518 | 3.33° C | 67% | 1002.1 hPa | 0 mm | 0.45 m/s, 250° | - | - |
| 1777986923 | 2.78° C | 67% | 1002.1 hPa | 0 mm | 1.34 m/s, 256° | - | - |
| 1777986618 | 2.78° C | 67% | 1001.7 hPa | 0 mm | 3.13 m/s, 244° | - | - |
| 1777986323 | 2.78° C | 68% | 1001.7 hPa | 0 mm | 0.89 m/s, 261° | - | - |
| 1777985716 | 2.78° C | 67% | 1001.4 hPa | 0 mm | 1.34 m/s, 234° | - | - |
| 1777984817 | 2.22° C | 69% | 1001.5 hPa | 0 mm | 2.68 m/s, 241° | - | - |
| 1777984524 | 2.22° C | 69% | 1001.5 hPa | 0 mm | 1.34 m/s, 229° | - | - |
| 1777983918 | 2.22° C | 72% | 1001.5 hPa | 0 mm | 0 m/s | - | - |
| 1777983323 | 1.67° C | 72% | 1001.5 hPa | 0 mm | 2.68 m/s, 244° | - | - |
| 1777983017 | 1.67° C | 73% | 1001.2 hPa | 0 mm | 0.45 m/s, 193° | - | - |
| 1777982116 | 1.11° C | 73% | 1000.9 hPa | 0 mm | 0 m/s | - | - |
| 1777981522 | 1.11° C | 73% | 1000.9 hPa | 0 mm | 0 m/s | - | - |
| 1777981216 | 1.11° C | 73% | 1000.7 hPa | 0 mm | 0 m/s | - | - |
| 1777980923 | 1.11° C | 74% | 1000.7 hPa | 0 mm | 2.24 m/s, 237° | - | - |
| 1777980316 | 0.56° C | 73% | 1000.7 hPa | 0 mm | 0.45 m/s, 230° | - | - |
| 1777979722 | 0.56° C | 74% | 1000.7 hPa | 0 mm | 0 m/s | - | - |
| 1777979417 | 0.56° C | 74% | 1000.1 hPa | 0 mm | 0 m/s | - | - |
| 1777979122 | 0.56° C | 73% | 1000.1 hPa | 0 mm | 0 m/s | - | - |
| 1777978518 | 0.56° C | 72% | 1000 hPa | 0 mm | 0 m/s | - | - |
| 1777977617 | 0.56° C | 70% | 999.8 hPa | 0 mm | 0 m/s | - | - |
| 1777977325 | 0.56° C | 70% | 999.8 hPa | 0 mm | 0 m/s | - | - |
* Rain latest hour (hover to see other rain measurements)
** Current wind speed in m/s (hover to see current wind gust speed)